sensor_id;sensor_type;location;lat;lon;timestamp;pressure;altitude;pressure_sealevel;temperature;humidity
76808;BME280;65758;45.458;11.062;2023-10-19T00:01:17;100446.15;;;12.97;77.17
76808;BME280;65758;45.458;11.062;2023-10-19T00:03:45;100441.20;;;12.97;77.07
76808;BME280;65758;45.458;11.062;2023-10-19T00:06:12;100443.64;;;12.98;77.21
76808;BME280;65758;45.458;11.062;2023-10-19T00:08:39;100446.17;;;12.98;76.94
76808;BME280;65758;45.458;11.062;2023-10-19T00:11:09;100440.90;;;12.98;77.12
76808;BME280;65758;45.458;11.062;2023-10-19T00:13:38;100443.35;;;12.98;76.90
76808;BME280;65758;45.458;11.062;2023-10-19T00:16:07;100447.75;;;12.98;76.99
76808;BME280;65758;45.458;11.062;2023-10-19T00:18:45;100446.08;;;12.99;76.91
76808;BME280;65758;45.458;11.062;2023-10-19T00:21:16;100446.90;;;12.99;76.71
76808;BME280;65758;45.458;11.062;2023-10-19T00:23:56;100449.05;;;13.00;77.08
76808;BME280;65758;45.458;11.062;2023-10-19T00:26:25;100438.89;;;12.99;76.97
76808;BME280;65758;45.458;11.062;2023-10-19T00:28:57;100429.55;;;13.00;77.42
76808;BME280;65758;45.458;11.062;2023-10-19T00:31:26;100425.94;;;13.01;77.27
76808;BME280;65758;45.458;11.062;2023-10-19T00:34:00;100421.48;;;13.00;77.29
76808;BME280;65758;45.458;11.062;2023-10-19T00:36:27;100421.20;;;13.00;77.09
76808;BME280;65758;45.458;11.062;2023-10-19T00:38:57;100421.86;;;13.00;77.26
76808;BME280;65758;45.458;11.062;2023-10-19T00:41:27;100420.20;;;12.99;77.36
76808;BME280;65758;45.458;11.062;2023-10-19T00:43:59;100417.23;;;12.98;77.28
76808;BME280;65758;45.458;11.062;2023-10-19T00:46:39;100412.56;;;12.99;77.30
76808;BME280;65758;45.458;11.062;2023-10-19T00:49:13;100405.04;;;12.99;77.32
76808;BME280;65758;45.458;11.062;2023-10-19T00:51:45;100392.41;;;12.99;77.35
76808;BME280;65758;45.458;11.062;2023-10-19T00:54:23;100386.26;;;12.99;77.34
76808;BME280;65758;45.458;11.062;2023-10-19T00:57:02;100387.06;;;12.98;77.43
76808;BME280;65758;45.458;11.062;2023-10-19T00:59:39;100394.61;;;12.99;77.10
76808;BME280;65758;45.458;11.062;2023-10-19T01:02:10;100398.23;;;12.99;77.34
76808;BME280;65758;45.458;11.062;2023-10-19T01:04:45;100389.50;;;12.99;77.36
76808;BME280;65758;45.458;11.062;2023-10-19T01:07:18;100382.17;;;12.98;77.22
76808;BME280;65758;45.458;11.062;2023-10-19T01:10:00;100368.98;;;12.97;77.23
76808;BME280;65758;45.458;11.062;2023-10-19T01:12:29;100364.64;;;12.97;77.27
76808;BME280;65758;45.458;11.062;2023-10-19T01:17:35;100373.52;;;12.99;77.53
76808;BME280;65758;45.458;11.062;2023-10-19T01:20:15;100375.00;;;12.99;77.34
76808;BME280;65758;45.458;11.062;2023-10-19T01:23:03;100367.69;;;13.00;77.57
76808;BME280;65758;45.458;11.062;2023-10-19T01:25:56;100351.33;;;12.99;77.35
76808;BME280;65758;45.458;11.062;2023-10-19T01:31:22;100313.15;;;12.96;77.92
76808;BME280;65758;45.458;11.062;2023-10-19T01:33:50;100308.58;;;12.95;77.71
76808;BME280;65758;45.458;11.062;2023-10-19T01:36:17;100318.53;;;12.95;77.61
76808;BME280;65758;45.458;11.062;2023-10-19T01:38:57;100308.86;;;12.95;77.65
76808;BME280;65758;45.458;11.062;2023-10-19T01:41:38;100307.59;;;12.96;77.62
76808;BME280;65758;45.458;11.062;2023-10-19T01:44:06;100322.10;;;12.96;77.87
76808;BME280;65758;45.458;11.062;2023-10-19T01:46:34;100333.14;;;12.96;77.66
76808;BME280;65758;45.458;11.062;2023-10-19T01:49:04;100338.46;;;12.96;77.62
76808;BME280;65758;45.458;11.062;2023-10-19T01:51:33;100327.45;;;12.98;77.83
76808;BME280;65758;45.458;11.062;2023-10-19T01:54:06;100315.38;;;12.98;77.52
76808;BME280;65758;45.458;11.062;2023-10-19T01:56:34;100308.90;;;12.98;77.66
76808;BME280;65758;45.458;11.062;2023-10-19T01:59:03;100299.42;;;12.97;77.59
76808;BME280;65758;45.458;11.062;2023-10-19T02:01:31;100295.24;;;12.95;77.72
76808;BME280;65758;45.458;11.062;2023-10-19T02:04:02;100297.92;;;12.94;78.05
76808;BME280;65758;45.458;11.062;2023-10-19T02:06:31;100299.33;;;12.94;77.96
76808;BME280;65758;45.458;11.062;2023-10-19T02:09:05;100298.16;;;12.93;77.93
76808;BME280;65758;45.458;11.062;2023-10-19T02:11:36;100293.51;;;12.93;78.06
76808;BME280;65758;45.458;11.062;2023-10-19T02:14:09;100289.78;;;12.94;78.25
76808;BME280;65758;45.458;11.062;2023-10-19T02:16:43;100291.63;;;12.93;78.30
76808;BME280;65758;45.458;11.062;2023-10-19T02:19:14;100292.36;;;12.93;78.36
76808;BME280;65758;45.458;11.062;2023-10-19T02:21:41;100283.05;;;12.95;78.18
76808;BME280;65758;45.458;11.062;2023-10-19T02:24:09;100273.77;;;12.97;78.13
76808;BME280;65758;45.458;11.062;2023-10-19T02:26:38;100271.21;;;12.98;78.33
76808;BME280;65758;45.458;11.062;2023-10-19T02:29:05;100262.06;;;12.99;78.34
76808;BME280;65758;45.458;11.062;2023-10-19T02:31:35;100251.12;;;12.98;78.18
76808;BME280;65758;45.458;11.062;2023-10-19T02:34:04;100245.91;;;12.96;78.05
76808;BME280;65758;45.458;11.062;2023-10-19T02:36:31;100248.48;;;12.91;78.35
76808;BME280;65758;45.458;11.062;2023-10-19T02:39:01;100247.21;;;12.90;78.64
76808;BME280;65758;45.458;11.062;2023-10-19T02:41:41;100239.42;;;12.91;78.70
76808;BME280;65758;45.458;11.062;2023-10-19T02:44:10;100233.13;;;12.92;78.74
76808;BME280;65758;45.458;11.062;2023-10-19T02:46:46;100227.78;;;12.94;78.50
76808;BME280;65758;45.458;11.062;2023-10-19T02:49:14;100229.16;;;12.96;78.42
76808;BME280;65758;45.458;11.062;2023-10-19T02:51:47;100223.08;;;12.98;78.41
76808;BME280;65758;45.458;11.062;2023-10-19T02:58:43;100213.02;;;13.01;78.32
76808;BME280;65758;45.458;11.062;2023-10-19T03:01:17;100209.58;;;13.02;78.16
76808;BME280;65758;45.458;11.062;2023-10-19T03:03:51;100204.64;;;13.03;78.11
76808;BME280;65758;45.458;11.062;2023-10-19T03:06:28;100203.66;;;13.03;78.24
76808;BME280;65758;45.458;11.062;2023-10-19T03:09:05;100192.66;;;13.03;78.30
76808;BME280;65758;45.458;11.062;2023-10-19T03:11:40;100185.80;;;13.03;78.08
76808;BME280;65758;45.458;11.062;2023-10-19T03:14:09;100181.75;;;13.05;78.02
76808;BME280;65758;45.458;11.062;2023-10-19T03:16:37;100174.76;;;13.06;78.12
76808;BME280;65758;45.458;11.062;2023-10-19T03:19:04;100170.47;;;13.07;78.07
76808;BME280;65758;45.458;11.062;2023-10-19T03:21:31;100172.12;;;13.08;78.17
76808;BME280;65758;45.458;11.062;2023-10-19T03:24:01;100165.27;;;13.08;77.85
76808;BME280;65758;45.458;11.062;2023-10-19T03:26:39;100162.02;;;13.08;78.18
76808;BME280;65758;45.458;11.062;2023-10-19T03:29:16;100162.98;;;13.09;78.24
76808;BME280;65758;45.458;11.062;2023-10-19T03:31:49;100157.13;;;13.10;78.00
76808;BME280;65758;45.458;11.062;2023-10-19T03:34:18;100151.39;;;13.10;78.10
76808;BME280;65758;45.458;11.062;2023-10-19T03:36:45;100148.41;;;13.10;78.12
76808;BME280;65758;45.458;11.062;2023-10-19T03:39:12;100150.38;;;13.10;78.27
76808;BME280;65758;45.458;11.062;2023-10-19T03:41:44;100147.83;;;13.10;78.23
76808;BME280;65758;45.458;11.062;2023-10-19T03:44:13;100151.74;;;13.10;78.36
76808;BME280;65758;45.458;11.062;2023-10-19T03:46:51;100150.88;;;13.10;78.54
76808;BME280;65758;45.458;11.062;2023-10-19T03:49:38;100146.15;;;13.11;78.47
76808;BME280;65758;45.458;11.062;2023-10-19T03:52:07;100147.35;;;13.11;78.38
76808;BME280;65758;45.458;11.062;2023-10-19T03:54:37;100140.39;;;13.11;78.22
76808;BME280;65758;45.458;11.062;2023-10-19T03:57:12;100141.29;;;13.13;78.44
76808;BME280;65758;45.458;11.062;2023-10-19T03:59:40;100138.36;;;13.12;78.47
76808;BME280;65758;45.458;11.062;2023-10-19T04:02:07;100137.84;;;13.13;78.29
76808;BME280;65758;45.458;11.062;2023-10-19T04:04:43;100134.47;;;13.13;78.15
76808;BME280;65758;45.458;11.062;2023-10-19T04:07:11;100141.16;;;13.12;78.31
76808;BME280;65758;45.458;11.062;2023-10-19T04:09:45;100137.44;;;13.13;78.27
76808;BME280;65758;45.458;11.062;2023-10-19T04:12:26;100133.70;;;13.13;78.51
76808;BME280;65758;45.458;11.062;2023-10-19T04:14:58;100127.80;;;13.12;78.25
76808;BME280;65758;45.458;11.062;2023-10-19T04:17:36;100122.82;;;13.09;78.44
76808;BME280;65758;45.458;11.062;2023-10-19T04:20:06;100119.98;;;13.06;78.75
76808;BME280;65758;45.458;11.062;2023-10-19T04:22:47;100117.94;;;13.01;78.97
76808;BME280;65758;45.458;11.062;2023-10-19T04:29:41;100105.61;;;12.94;78.96
76808;BME280;65758;45.458;11.062;2023-10-19T04:32:10;100106.52;;;12.90;79.21
76808;BME280;65758;45.458;11.062;2023-10-19T04:34:40;100104.38;;;12.92;79.35
76808;BME280;65758;45.458;11.062;2023-10-19T04:37:07;100103.93;;;12.96;79.25
76808;BME280;65758;45.458;11.062;2023-10-19T04:39:34;100099.45;;;12.98;79.12
76808;BME280;65758;45.458;11.062;2023-10-19T04:42:02;100095.91;;;13.00;79.45
76808;BME280;65758;45.458;11.062;2023-10-19T04:44:30;100090.83;;;13.02;79.34
76808;BME280;65758;45.458;11.062;2023-10-19T04:46:58;100090.13;;;13.05;79.24
76808;BME280;65758;45.458;11.062;2023-10-19T04:49:25;100092.96;;;13.08;79.23
76808;BME280;65758;45.458;11.062;2023-10-19T04:51:51;100092.47;;;13.11;79.49
76808;BME280;65758;45.458;11.062;2023-10-19T04:54:18;100093.43;;;13.13;79.26
76808;BME280;65758;45.458;11.062;2023-10-19T04:56:45;100089.33;;;13.14;79.32
76808;BME280;65758;45.458;11.062;2023-10-19T04:59:12;100087.38;;;13.17;79.40
76808;BME280;65758;45.458;11.062;2023-10-19T05:01:39;100088.70;;;13.19;79.15
76808;BME280;65758;45.458;11.062;2023-10-19T05:04:08;100085.63;;;13.19;79.07
76808;BME280;65758;45.458;11.062;2023-10-19T05:06:34;100081.20;;;13.20;79.20
76808;BME280;65758;45.458;11.062;2023-10-19T05:09:01;100076.10;;;13.21;78.87
76808;BME280;65758;45.458;11.062;2023-10-19T05:11:29;100072.42;;;13.21;78.96
76808;BME280;65758;45.458;11.062;2023-10-19T05:13:56;100076.70;;;13.22;78.90
76808;BME280;65758;45.458;11.062;2023-10-19T05:16:23;100077.04;;;13.22;79.07
76808;BME280;65758;45.458;11.062;2023-10-19T05:18:50;100078.48;;;13.24;79.07
76808;BME280;65758;45.458;11.062;2023-10-19T05:21:17;100076.20;;;13.26;78.89
76808;BME280;65758;45.458;11.062;2023-10-19T05:23:44;100076.90;;;13.26;78.89
76808;BME280;65758;45.458;11.062;2023-10-19T05:26:10;100070.60;;;13.27;79.03
76808;BME280;65758;45.458;11.062;2023-10-19T05:28:39;100067.09;;;13.27;79.01
76808;BME280;65758;45.458;11.062;2023-10-19T05:31:06;100067.30;;;13.27;79.15
76808;BME280;65758;45.458;11.062;2023-10-19T05:33:33;100063.73;;;13.27;79.06
76808;BME280;65758;45.458;11.062;2023-10-19T05:36:00;100065.96;;;13.25;79.09
76808;BME280;65758;45.458;11.062;2023-10-19T05:38:28;100061.58;;;13.24;79.16
76808;BME280;65758;45.458;11.062;2023-10-19T05:40:57;100061.73;;;13.24;79.44
76808;BME280;65758;45.458;11.062;2023-10-19T05:43:25;100058.46;;;13.26;79.33
76808;BME280;65758;45.458;11.062;2023-10-19T05:45:52;100053.51;;;13.27;79.45
76808;BME280;65758;45.458;11.062;2023-10-19T05:48:20;100044.93;;;13.26;79.44
76808;BME280;65758;45.458;11.062;2023-10-19T05:50:47;100047.73;;;13.25;79.37
76808;BME280;65758;45.458;11.062;2023-10-19T05:53:14;100043.40;;;13.21;79.29
76808;BME280;65758;45.458;11.062;2023-10-19T05:55:45;100044.20;;;13.19;79.36
76808;BME280;65758;45.458;11.062;2023-10-19T05:58:12;100046.18;;;13.18;79.57
76808;BME280;65758;45.458;11.062;2023-10-19T06:00:39;100046.75;;;13.18;79.54
76808;BME280;65758;45.458;11.062;2023-10-19T06:03:06;100043.93;;;13.18;79.59
76808;BME280;65758;45.458;11.062;2023-10-19T06:05:33;100042.23;;;13.19;79.63
76808;BME280;65758;45.458;11.062;2023-10-19T06:08:00;100046.70;;;13.20;79.74
76808;BME280;65758;45.458;11.062;2023-10-19T06:10:28;100045.52;;;13.24;79.52
76808;BME280;65758;45.458;11.062;2023-10-19T06:12:55;100036.80;;;13.27;79.67
76808;BME280;65758;45.458;11.062;2023-10-19T06:15:22;100035.28;;;13.28;79.86
76808;BME280;65758;45.458;11.062;2023-10-19T06:17:52;100036.29;;;13.30;79.58
76808;BME280;65758;45.458;11.062;2023-10-19T06:20:19;100044.70;;;13.31;79.51
76808;BME280;65758;45.458;11.062;2023-10-19T06:22:53;100048.38;;;13.31;79.61
76808;BME280;65758;45.458;11.062;2023-10-19T06:25:24;100049.02;;;13.33;79.64
76808;BME280;65758;45.458;11.062;2023-10-19T06:27:52;100050.59;;;13.34;79.61
76808;BME280;65758;45.458;11.062;2023-10-19T06:30:20;100051.81;;;13.34;79.51
76808;BME280;65758;45.458;11.062;2023-10-19T06:32:57;100053.19;;;13.35;79.56
76808;BME280;65758;45.458;11.062;2023-10-19T06:35:31;100049.38;;;13.37;79.67
76808;BME280;65758;45.458;11.062;2023-10-19T06:37:59;100047.49;;;13.36;79.90
76808;BME280;65758;45.458;11.062;2023-10-19T06:40:28;100051.17;;;13.36;79.81
76808;BME280;65758;45.458;11.062;2023-10-19T06:42:55;100050.02;;;13.36;79.61
76808;BME280;65758;45.458;11.062;2023-10-19T06:45:23;100047.40;;;13.36;79.65
76808;BME280;65758;45.458;11.062;2023-10-19T06:47:52;100040.09;;;13.37;79.80
76808;BME280;65758;45.458;11.062;2023-10-19T06:50:20;100036.35;;;13.39;79.92
76808;BME280;65758;45.458;11.062;2023-10-19T06:52:49;100028.98;;;13.37;79.74
76808;BME280;65758;45.458;11.062;2023-10-19T06:55:18;100032.33;;;13.36;80.31
76808;BME280;65758;45.458;11.062;2023-10-19T06:57:51;100029.04;;;13.37;80.25
76808;BME280;65758;45.458;11.062;2023-10-19T07:00:21;100022.84;;;13.39;80.49
76808;BME280;65758;45.458;11.062;2023-10-19T07:02:50;100016.21;;;13.43;80.36
76808;BME280;65758;45.458;11.062;2023-10-19T07:05:19;100012.30;;;13.47;80.09
76808;BME280;65758;45.458;11.062;2023-10-19T07:07:51;100015.50;;;13.51;80.06
76808;BME280;65758;45.458;11.062;2023-10-19T07:10:20;100017.34;;;13.53;80.01
76808;BME280;65758;45.458;11.062;2023-10-19T07:12:51;100018.29;;;13.54;79.96
76808;BME280;65758;45.458;11.062;2023-10-19T07:15:18;100021.31;;;13.55;79.88
76808;BME280;65758;45.458;11.062;2023-10-19T07:17:50;100022.32;;;13.57;79.81
76808;BME280;65758;45.458;11.062;2023-10-19T07:24:16;100020.48;;;13.61;80.17
76808;BME280;65758;45.458;11.062;2023-10-19T07:26:45;100016.02;;;13.62;79.96
76808;BME280;65758;45.458;11.062;2023-10-19T07:29:31;100009.73;;;13.64;80.02
76808;BME280;65758;45.458;11.062;2023-10-19T07:32:00;100005.66;;;13.65;79.98
76808;BME280;65758;45.458;11.062;2023-10-19T07:34:27;100004.79;;;13.67;79.97
76808;BME280;65758;45.458;11.062;2023-10-19T07:36:58;100008.19;;;13.66;80.04
76808;BME280;65758;45.458;11.062;2023-10-19T07:39:26;100017.65;;;13.66;79.90
76808;BME280;65758;45.458;11.062;2023-10-19T07:41:56;100025.84;;;13.67;79.98
76808;BME280;65758;45.458;11.062;2023-10-19T07:44:23;100024.30;;;13.66;80.09
76808;BME280;65758;45.458;11.062;2023-10-19T07:46:50;100030.73;;;13.66;79.99
76808;BME280;65758;45.458;11.062;2023-10-19T07:49:17;100025.85;;;13.67;80.06
76808;BME280;65758;45.458;11.062;2023-10-19T07:51:46;100027.28;;;13.69;80.04
76808;BME280;65758;45.458;11.062;2023-10-19T07:54:13;100025.77;;;13.71;80.07
76808;BME280;65758;45.458;11.062;2023-10-19T07:56:40;100025.78;;;13.73;80.13
76808;BME280;65758;45.458;11.062;2023-10-19T07:59:07;100025.23;;;13.74;79.89
76808;BME280;65758;45.458;11.062;2023-10-19T08:01:34;100025.91;;;13.77;79.95
76808;BME280;65758;45.458;11.062;2023-10-19T08:04:01;100021.75;;;13.80;79.94
76808;BME280;65758;45.458;11.062;2023-10-19T08:06:28;100020.56;;;13.82;80.12
76808;BME280;65758;45.458;11.062;2023-10-19T08:08:55;100016.27;;;13.85;79.86
76808;BME280;65758;45.458;11.062;2023-10-19T08:11:22;100010.80;;;13.88;79.82
76808;BME280;65758;45.458;11.062;2023-10-19T08:13:49;100002.95;;;13.89;79.58
76808;BME280;65758;45.458;11.062;2023-10-19T08:16:16;99996.08;;;13.91;79.72
76808;BME280;65758;45.458;11.062;2023-10-19T08:18:44;99995.22;;;13.94;79.75
76808;BME280;65758;45.458;11.062;2023-10-19T08:21:10;99991.67;;;13.98;79.66
76808;BME280;65758;45.458;11.062;2023-10-19T08:23:39;99996.36;;;14.01;79.60
76808;BME280;65758;45.458;11.062;2023-10-19T08:26:07;100002.04;;;14.04;79.53
76808;BME280;65758;45.458;11.062;2023-10-19T08:28:34;100002.42;;;14.07;79.56
76808;BME280;65758;45.458;11.062;2023-10-19T08:31:01;99994.25;;;14.10;79.56
76808;BME280;65758;45.458;11.062;2023-10-19T08:33:28;99984.90;;;14.12;79.37
76808;BME280;65758;45.458;11.062;2023-10-19T08:35:56;99977.11;;;14.16;79.28
76808;BME280;65758;45.458;11.062;2023-10-19T08:38:24;99970.45;;;14.19;79.30
76808;BME280;65758;45.458;11.062;2023-10-19T08:40:53;99964.04;;;14.23;79.15
76808;BME280;65758;45.458;11.062;2023-10-19T08:43:20;99957.45;;;14.27;78.98
76808;BME280;65758;45.458;11.062;2023-10-19T08:45:48;99952.17;;;14.32;78.98
76808;BME280;65758;45.458;11.062;2023-10-19T08:48:16;99944.74;;;14.40;78.83
76808;BME280;65758;45.458;11.062;2023-10-19T08:50:43;99943.45;;;14.52;78.79
76808;BME280;65758;45.458;11.062;2023-10-19T08:53:10;99944.13;;;14.58;78.33
76808;BME280;65758;45.458;11.062;2023-10-19T08:55:41;99932.67;;;14.60;78.15
76808;BME280;65758;45.458;11.062;2023-10-19T08:58:16;99925.58;;;14.60;78.23
76808;BME280;65758;45.458;11.062;2023-10-19T09:00:49;99926.95;;;14.62;78.29
76808;BME280;65758;45.458;11.062;2023-10-19T09:03:24;99925.80;;;14.65;78.15
76808;BME280;65758;45.458;11.062;2023-10-19T09:05:53;99925.97;;;14.71;78.45
76808;BME280;65758;45.458;11.062;2023-10-19T09:08:21;99929.13;;;14.78;78.39
76808;BME280;65758;45.458;11.062;2023-10-19T09:10:50;99932.26;;;14.83;78.09
76808;BME280;65758;45.458;11.062;2023-10-19T09:13:21;99926.77;;;14.90;78.50
76808;BME280;65758;45.458;11.062;2023-10-19T09:15:51;99925.88;;;14.95;78.55
76808;BME280;65758;45.458;11.062;2023-10-19T09:18:22;99930.95;;;14.99;78.43
76808;BME280;65758;45.458;11.062;2023-10-19T09:20:52;99933.98;;;15.02;78.20
76808;BME280;65758;45.458;11.062;2023-10-19T09:23:35;99939.16;;;15.02;78.01
76808;BME280;65758;45.458;11.062;2023-10-19T09:26:04;99942.73;;;15.00;78.15
76808;BME280;65758;45.458;11.062;2023-10-19T09:28:36;99938.48;;;14.99;77.87
76808;BME280;65758;45.458;11.062;2023-10-19T09:31:05;99945.27;;;14.97;77.76
76808;BME280;65758;45.458;11.062;2023-10-19T09:33:40;99941.74;;;14.95;78.06
76808;BME280;65758;45.458;11.062;2023-10-19T09:36:09;99937.83;;;14.96;78.08
76808;BME280;65758;45.458;11.062;2023-10-19T09:38:49;99927.31;;;14.97;78.21
76808;BME280;65758;45.458;11.062;2023-10-19T09:41:21;99918.00;;;14.98;78.14
76808;BME280;65758;45.458;11.062;2023-10-19T09:43:50;99912.70;;;15.00;77.98
76808;BME280;65758;45.458;11.062;2023-10-19T09:46:31;99905.82;;;15.04;78.06
76808;BME280;65758;45.458;11.062;2023-10-19T09:48:59;99899.15;;;15.10;77.90
76808;BME280;65758;45.458;11.062;2023-10-19T09:51:26;99899.41;;;15.16;77.95
76808;BME280;65758;45.458;11.062;2023-10-19T09:57:03;99896.15;;;15.25;77.56
76808;BME280;65758;45.458;11.062;2023-10-19T09:59:40;99892.84;;;15.28;77.22
76808;BME280;65758;45.458;11.062;2023-10-19T10:02:10;99877.77;;;15.30;77.21
76808;BME280;65758;45.458;11.062;2023-10-19T10:04:41;99869.13;;;15.28;77.26
76808;BME280;65758;45.458;11.062;2023-10-19T10:07:10;99868.96;;;15.25;77.23
76808;BME280;65758;45.458;11.062;2023-10-19T10:09:39;99871.83;;;15.26;77.35
76808;BME280;65758;45.458;11.062;2023-10-19T10:12:22;99877.63;;;15.28;77.40
76808;BME280;65758;45.458;11.062;2023-10-19T10:15:01;99880.37;;;15.34;77.60
76808;BME280;65758;45.458;11.062;2023-10-19T10:17:33;99890.72;;;15.37;77.70
76808;BME280;65758;45.458;11.062;2023-10-19T10:22:40;99898.93;;;15.38;77.92
76808;BME280;65758;45.458;11.062;2023-10-19T10:25:27;99901.20;;;15.36;78.10
76808;BME280;65758;45.458;11.062;2023-10-19T10:27:54;99907.71;;;15.36;78.03
76808;BME280;65758;45.458;11.062;2023-10-19T10:30:22;99899.44;;;15.35;77.83
76808;BME280;65758;45.458;11.062;2023-10-19T10:32:51;99886.33;;;15.33;77.86
76808;BME280;65758;45.458;11.062;2023-10-19T10:38:09;99876.13;;;15.28;77.86
76808;BME280;65758;45.458;11.062;2023-10-19T10:40:42;99869.30;;;15.27;78.06
76808;BME280;65758;45.458;11.062;2023-10-19T10:43:10;99866.01;;;15.25;78.15
76808;BME280;65758;45.458;11.062;2023-10-19T10:45:38;99869.04;;;15.24;77.91
76808;BME280;65758;45.458;11.062;2023-10-19T10:48:15;99873.81;;;15.25;78.00
76808;BME280;65758;45.458;11.062;2023-10-19T10:50:43;99860.55;;;15.28;78.12
76808;BME280;65758;45.458;11.062;2023-10-19T10:53:13;99856.98;;;15.30;77.79
76808;BME280;65758;45.458;11.062;2023-10-19T10:55:42;99853.73;;;15.33;77.89
76808;BME280;65758;45.458;11.062;2023-10-19T10:58:17;99852.77;;;15.39;77.83
76808;BME280;65758;45.458;11.062;2023-10-19T11:00:45;99860.90;;;15.41;77.67
76808;BME280;65758;45.458;11.062;2023-10-19T11:03:18;99860.66;;;15.41;77.51
76808;BME280;65758;45.458;11.062;2023-10-19T11:05:46;99862.05;;;15.39;77.79
76808;BME280;65758;45.458;11.062;2023-10-19T11:10:42;99856.05;;;15.37;78.00
76808;BME280;65758;45.458;11.062;2023-10-19T11:13:11;99853.34;;;15.36;78.05
76808;BME280;65758;45.458;11.062;2023-10-19T11:15:39;99839.78;;;15.35;78.16
76808;BME280;65758;45.458;11.062;2023-10-19T11:18:29;99833.39;;;15.36;78.07
76808;BME280;65758;45.458;11.062;2023-10-19T11:20:56;99830.84;;;15.37;78.19
76808;BME280;65758;45.458;11.062;2023-10-19T11:23:40;99826.16;;;15.36;77.64
76808;BME280;65758;45.458;11.062;2023-10-19T11:26:17;99827.12;;;15.33;77.53
76808;BME280;65758;45.458;11.062;2023-10-19T11:28:44;99822.48;;;15.30;77.80
76808;BME280;65758;45.458;11.062;2023-10-19T11:31:21;99814.90;;;15.29;77.84
76808;BME280;65758;45.458;11.062;2023-10-19T11:33:51;99811.09;;;15.27;77.70
76808;BME280;65758;45.458;11.062;2023-10-19T11:36:20;99812.18;;;15.25;77.83
76808;BME280;65758;45.458;11.062;2023-10-19T11:38:48;99813.67;;;15.23;77.77
76808;BME280;65758;45.458;11.062;2023-10-19T11:41:16;99805.96;;;15.22;77.91
76808;BME280;65758;45.458;11.062;2023-10-19T11:43:47;99787.00;;;15.23;77.98
76808;BME280;65758;45.458;11.062;2023-10-19T11:46:17;99781.86;;;15.26;78.37
76808;BME280;65758;45.458;11.062;2023-10-19T11:48:49;99793.15;;;15.30;78.25
76808;BME280;65758;45.458;11.062;2023-10-19T11:51:16;99809.68;;;15.34;78.65
76808;BME280;65758;45.458;11.062;2023-10-19T11:53:43;99813.77;;;15.36;78.62
76808;BME280;65758;45.458;11.062;2023-10-19T11:56:11;99810.95;;;15.36;78.64
76808;BME280;65758;45.458;11.062;2023-10-19T11:58:40;99806.86;;;15.38;78.81
76808;BME280;65758;45.458;11.062;2023-10-19T12:01:10;99806.63;;;15.38;78.83
76808;BME280;65758;45.458;11.062;2023-10-19T12:03:41;99810.48;;;15.38;78.86
76808;BME280;65758;45.458;11.062;2023-10-19T12:06:09;99813.74;;;15.37;78.62
76808;BME280;65758;45.458;11.062;2023-10-19T12:08:37;99807.31;;;15.36;78.60
76808;BME280;65758;45.458;11.062;2023-10-19T12:11:05;99804.50;;;15.36;78.61
76808;BME280;65758;45.458;11.062;2023-10-19T12:13:43;99795.66;;;15.37;78.73
76808;BME280;65758;45.458;11.062;2023-10-19T12:20:37;99790.10;;;15.40;78.68
76808;BME280;65758;45.458;11.062;2023-10-19T12:23:04;99792.98;;;15.35;78.54
76808;BME280;65758;45.458;11.062;2023-10-19T12:25:32;99784.83;;;15.30;78.77
76808;BME280;65758;45.458;11.062;2023-10-19T12:28:19;99786.17;;;15.28;79.25
76808;BME280;65758;45.458;11.062;2023-10-19T12:30:46;99779.77;;;15.29;78.97
76808;BME280;65758;45.458;11.062;2023-10-19T12:33:13;99775.73;;;15.29;79.23
76808;BME280;65758;45.458;11.062;2023-10-19T12:35:41;99779.77;;;15.26;78.87
76808;BME280;65758;45.458;11.062;2023-10-19T12:42:40;99766.79;;;15.18;79.39
76808;BME280;65758;45.458;11.062;2023-10-19T12:45:08;99767.46;;;15.16;79.25
76808;BME280;65758;45.458;11.062;2023-10-19T12:47:37;99773.04;;;15.14;79.62
76808;BME280;65758;45.458;11.062;2023-10-19T12:50:05;99775.85;;;15.13;79.68
76808;BME280;65758;45.458;11.062;2023-10-19T12:52:33;99778.66;;;15.13;79.50
76808;BME280;65758;45.458;11.062;2023-10-19T12:55:04;99786.39;;;15.13;79.86
76808;BME280;65758;45.458;11.062;2023-10-19T12:57:33;99781.42;;;15.13;79.73
76808;BME280;65758;45.458;11.062;2023-10-19T13:00:00;99774.98;;;15.13;79.99
76808;BME280;65758;45.458;11.062;2023-10-19T13:02:50;99767.95;;;15.14;80.04
76808;BME280;65758;45.458;11.062;2023-10-19T13:05:17;99764.61;;;15.12;80.06
76808;BME280;65758;45.458;11.062;2023-10-19T13:07:47;99764.66;;;15.12;80.31
76808;BME280;65758;45.458;11.062;2023-10-19T13:10:14;99761.90;;;15.11;80.17
76808;BME280;65758;45.458;11.062;2023-10-19T13:12:41;99751.16;;;15.12;80.48
76808;BME280;65758;45.458;11.062;2023-10-19T13:15:08;99735.02;;;15.12;80.35
76808;BME280;65758;45.458;11.062;2023-10-19T13:17:39;99731.60;;;15.10;80.49
76808;BME280;65758;45.458;11.062;2023-10-19T13:20:07;99730.90;;;15.09;80.77
76808;BME280;65758;45.458;11.062;2023-10-19T13:22:44;99736.84;;;15.10;80.94
76808;BME280;65758;45.458;11.062;2023-10-19T13:25:13;99737.34;;;15.09;80.70
76808;BME280;65758;45.458;11.062;2023-10-19T13:27:46;99738.17;;;15.10;80.84
76808;BME280;65758;45.458;11.062;2023-10-19T13:30:13;99736.77;;;15.10;80.72
76808;BME280;65758;45.458;11.062;2023-10-19T13:32:41;99737.11;;;15.11;80.80
76808;BME280;65758;45.458;11.062;2023-10-19T13:35:10;99731.21;;;15.10;80.76
76808;BME280;65758;45.458;11.062;2023-10-19T13:37:37;99726.69;;;15.11;80.73